ADDS METAR Data INFO
IDs: Format: Raw Decoded Include TAF

Data at: 0141 UTC 26 Feb 2018

KPTN 260112Z AUTO 14008KT 6SM RA BR FEW008 BKN014 OVC021 20/19 A3001 RMK AO2 P0004
KPTN 260056Z AUTO 11007KT 4SM -RA BR BKN018 OVC024 20/19 A3000 RMK AO2 SLP160 P0020 T02000194
KPTN 252356Z AUTO 11009KT 8SM -RA BKN027 BKN035 OVC043 21/19 A2999 RMK AO2 SLP157 P0012 60013 T02060194 10250 20206 56004
KPTN 252256Z AUTO 12010KT 10SM -RA OVC027 21/20 A2999 RMK AO2 RAB13 SLP157 P0001 T02110200
KPTN 252237Z AUTO 12010KT 10SM SCT023 BKN028 OVC037 22/20 A2999 RMK AO2 RAB13E33 P0001
KPTN 252156Z AUTO 11011KT 10SM FEW021 SCT100 24/20 A2999 RMK AO2 SLP155 T02390200
KPTN 252056Z AUTO 14009KT 10SM SCT021 BKN100 24/21 A3000 RMK AO2 SLP161 T02440206 58015
KPTN 252039Z AUTO 13008KT 10SM FEW021 24/20 A3001 RMK AO2
KPTN 251956Z AUTO 13007KT 10SM BKN021 BKN028 OVC090 24/20 A3003 RMK AO2 SLP168 T02390200
KPTN 251856Z AUTO 07007KT 010V080 10SM OVC021 22/19 A3004 RMK AO2 SLP174 T02220189
KPTN 251756Z AUTO 10008KT 10SM BKN021 OVC027 21/18 A3005 RMK AO2 SLP176 60001 T02060178 10217 20178 58016
KPTN 251656Z AUTO 07008KT 10SM OVC022 19/17 A3008 RMK AO2 SLP188 T01940172
KPTN 251556Z AUTO 06010KT 10SM BKN021 OVC027 18/17 A3010 RMK AO2 RAB16E54 SLP194 P0001 T01830172
KPTN 251456Z AUTO 04007KT 10SM SCT010 OVC015 19/17 A3010 RMK AO2 SLP192 T01890167 53021
KPTN 251435Z AUTO 03014KT 10SM BKN011 BKN023 OVC085 19/18 A3009 RMK AO2 CIG 006V015
KPTN 251411Z AUTO 02003KT 10SM SCT009 BKN019 OVC026 22/21 A3008 RMK AO2
KPTN 251356Z AUTO 35006KT 10SM BKN009 OVC014 22/21 A3008 RMK AO2 SLP186 T02170206
KPTN 251347Z AUTO 34005KT 9SM BKN009 OVC014 22/21 A3007 RMK AO2 CIG 008V012
KPTN 251332Z AUTO 35005KT 9SM BKN014 BKN080 OVC110 22/21 A3007 RMK AO2
KPTN 251256Z AUTO 00000KT 9SM BKN080 OVC110 21/21 A3005 RMK AO2 SLP176 T02110206
KPTN 251156Z AUTO 00000KT 10SM FEW014 SCT065 BKN120 21/21 A3003 RMK AO2 SLP171 T02110206 10222 20211 53016
KPTN 251056Z AUTO 18004KT 10SM SCT070 BKN110 22/21 A3000 RMK AO2 SLP159 T02170206
KPTN 250956Z AUTO 18006KT 10SM CLR 21/21 A2998 RMK AO2 SLP154 T02110206
KPTN 250856Z AUTO 18007KT 10SM FEW080 22/21 A2999 RMK AO2 SLP155 T02170206 58015
KPTN 250756Z AUTO 19008KT 10SM BKN075 22/21 A3001 RMK AO2 SLP162 T02170211
KPTN 250656Z AUTO 20006KT 10SM SCT075 22/21 A3003 RMK AO2 SLP170 T02220211
KPTN 250556Z AUTO 18008KT 10SM CLR 22/21 A3003 RMK AO2 SLP170 T02220211 10239 20217 402780217 52001
KPTN 250456Z AUTO 20005KT 10SM CLR 22/21 A3003 RMK AO2 SLP170 T02220211
KPTN 250356Z AUTO 18009KT 10SM SCT021 BKN075 OVC090 23/22 A3003 RMK AO2 SLP168 T02280217
KPTN 250256Z AUTO 18008KT 10SM SCT016 OVC023 23/22 A3003 RMK AO2 SLP168 T02280217 51010
KPTN 250243Z AUTO 19008KT 10SM FEW016 BKN023 OVC095 23/22 A3003 RMK AO2
KPTN 250208Z AUTO 18009KT 10SM FEW017 SCT024 OVC048 23/22 A3002 RMK AO2
KPTN 250156Z AUTO 20008KT 10SM FEW017 BKN024 OVC048 23/22 A3002 RMK AO2 SLP167 T02330217
KPTN 250121Z AUTO 19009KT 10SM FEW016 BKN021 OVC055 23/22 A3001 RMK AO2
KPTN 250056Z AUTO 18009KT 10SM FEW018 SCT024 OVC060 23/22 A3001 RMK AO2 SLP162 T02330217
KPTN 242356Z AUTO 19012KT 10SM BKN016 OVC042 24/22 A3000 RMK AO2 SLP158 T02390217 10278 20239 53005
KPTN 242256Z AUTO 19012G18KT 10SM BKN020 OVC042 24/21 A2999 RMK AO2 SLP154 T02440211
KPTN 242237Z AUTO 19016G22KT 10SM SCT022 OVC044 25/21 A2998 RMK AO2
KPTN 242156Z AUTO 19012G18KT 10SM BKN026 OVC048 26/21 A2998 RMK AO2 PK WND 17026/2116 SLP154 T02560211
KPTN 242138Z AUTO 18017G25KT 10SM BKN028 BKN033 26/21 A2998 RMK AO2 PK WND 17026/2116
KPTN 242056Z AUTO 19018G23KT 10SM FEW032 27/19 A2998 RMK AO2 PK WND 20027/2034 SLP153 T02720194 56021
KPTN 241956Z AUTO 19019G27KT 10SM SCT028 SCT034 27/21 A2999 RMK AO2 PK WND 18028/1929 SLP157 T02720206
KPTN 241856Z AUTO 19017G21KT 10SM BKN028 OVC034 27/21 A3002 RMK AO2 PK WND 19026/1838 SLP168 T02670206
KPTN 241756Z AUTO 18017G28KT 10SM BKN026 27/21 A3004 RMK AO2 PK WND 19028/1747 SLP174 T02670206 10272 20217 58015
KPTN 241656Z AUTO 17018G23KT 10SM BKN024 27/21 A3007 RMK AO2 PK WND 16028/1620 SLP182 T02670211
KPTN 241634Z AUTO 18017G27KT 10SM SCT024 26/21 A3007 RMK AO2 PK WND 16028/1620
KPTN 241556Z AUTO 18014G24KT 10SM BKN018 BKN026 25/22 A3008 RMK AO2 SLP188 T02500217
KPTN 241456Z AUTO 16010KT 140V210 10SM FEW010 OVC016 24/22 A3009 RMK AO2 SLP188 T02440217 53004
KPTN 241433Z AUTO 15007KT 10SM BKN010 OVC013 23/22 A3009 RMK AO2
KPTN 241356Z AUTO 16007KT 9SM BKN008 OVC017 23/22 A3008 RMK AO2 CIG 007V010 SLP187 T02280217